Time;durP1;ratioP1;P1;durP2;ratioP2;P2;SDS_P1;SDS_P2;PMS_P1;PMS_P2;Temp;Humidity;BMP_temperature;BMP_pressure;BME280_temperature;BME280_humidity;BME280_pressure;Samples;Min_cycle;Max_cycle;Signal;HPM_P1;HPM_P2
2023/09/29 00:00:18;;;;;;;6.22;4.30;;;;;18.80;98793.00;;;;5051175;28;20072;-66
2023/09/29 00:02:46;;;;;;;5.38;4.07;;;;;18.70;98786.00;;;;5051688;28;20040;-66
2023/09/29 00:05:19;;;;;;;5.78;4.20;;;;;18.60;98777.00;;;;5050945;28;20174;-66
2023/09/29 00:07:46;;;;;;;7.63;5.00;;;;;18.50;98772.00;;;;5051505;28;20123;-66
2023/09/29 00:10:16;;;;;;;6.35;4.10;;;;;18.50;98763.00;;;;5051793;28;20049;-66
2023/09/29 00:12:43;;;;;;;6.30;4.57;;;;;18.50;98770.00;;;;5054266;28;20049;-66
2023/09/29 00:15:10;;;;;;;5.53;4.20;;;;;18.50;98759.00;;;;5052950;28;20041;-66
2023/09/29 00:17:38;;;;;;;4.88;4.10;;;;;18.40;98755.00;;;;5036994;28;20044;-66
2023/09/29 00:20:23;;;;;;;5.45;4.10;;;;;18.40;98757.00;;;;5054806;28;20051;-66
2023/09/29 00:22:53;;;;;;;4.55;4.05;;;;;18.30;98764.00;;;;5054705;28;20059;-65
2023/09/29 00:25:20;;;;;;;6.72;4.43;;;;;18.30;98762.00;;;;5053178;28;20490;-67
2023/09/29 00:27:47;;;;;;;6.40;4.43;;;;;18.20;98762.00;;;;5055061;28;20045;-66
2023/09/29 00:30:14;;;;;;;7.97;4.35;;;;;18.30;98773.00;;;;5053391;28;20139;-65
2023/09/29 00:32:48;;;;;;;6.63;4.70;;;;;18.40;98783.00;;;;5054553;28;20045;-66
2023/09/29 00:35:18;;;;;;;7.55;4.88;;;;;18.40;98777.00;;;;5052401;28;20048;-66
2023/09/29 00:37:45;;;;;;;5.32;4.82;;;;;18.40;98772.00;;;;5053323;28;20139;-66
2023/09/29 00:40:13;;;;;;;7.85;5.00;;;;;18.40;98774.00;;;;5054604;28;20098;-66
2023/09/29 00:42:41;;;;;;;10.30;4.68;;;;;18.40;98782.00;;;;5054833;28;20379;-65
2023/09/29 00:45:08;;;;;;;5.20;3.97;;;;;18.50;98776.00;;;;5053032;28;20037;-66
2023/09/29 00:47:38;;;;;;;6.13;3.95;;;;;18.50;98778.00;;;;5052945;28;20118;-66
2023/09/29 00:50:09;;;;;;;7.32;4.70;;;;;18.50;98773.00;;;;5036546;28;20049;-66
2023/09/29 00:52:38;;;;;;;6.18;4.60;;;;;18.40;98768.00;;;;5053006;28;20049;-66
2023/09/29 00:55:11;;;;;;;7.88;4.75;;;;;18.20;98770.00;;;;5053483;28;20080;-65
2023/09/29 00:57:40;;;;;;;6.13;4.80;;;;;18.20;98768.00;;;;5052870;28;20494;-66
2023/09/29 01:00:13;;;;;;;5.60;4.50;;;;;18.20;98764.00;;;;5052681;28;20048;-66
2023/09/29 01:02:44;;;;;;;6.88;4.20;;;;;18.20;98762.00;;;;5053931;28;20561;-66
2023/09/29 01:05:12;;;;;;;6.85;4.10;;;;;18.10;98771.00;;;;5053298;28;20061;-65
2023/09/29 01:07:41;;;;;;;4.82;4.28;;;;;18.10;98764.00;;;;5052494;28;20048;-65
2023/09/29 01:10:11;;;;;;;10.85;5.15;;;;;18.10;98765.00;;;;5052512;28;20102;-66
2023/09/29 01:12:37;;;;;;;4.93;3.67;;;;;18.10;98764.00;;;;5052563;28;20099;-66
2023/09/29 01:15:05;;;;;;;6.55;4.65;;;;;18.10;98771.00;;;;5051854;28;20041;-66
2023/09/29 01:17:31;;;;;;;8.10;4.18;;;;;18.20;98765.00;;;;5052120;28;20413;-66
2023/09/29 01:19:58;;;;;;;6.57;4.40;;;;;18.10;98769.00;;;;5052282;28;20081;-65
2023/09/29 01:22:26;;;;;;;8.20;5.30;;;;;18.10;98766.00;;;;5053636;28;20033;-66
2023/09/29 01:24:53;;;;;;;5.80;4.15;;;;;18.10;98768.00;;;;5051592;28;20045;-65
2023/09/29 01:27:19;;;;;;;5.82;4.43;;;;;18.10;98763.00;;;;5053413;28;20478;-65
2023/09/29 01:29:47;;;;;;;6.43;4.65;;;;;18.20;98762.00;;;;5053358;28;20394;-66
2023/09/29 01:32:14;;;;;;;5.50;4.72;;;;;18.20;98759.00;;;;5052151;28;20056;-65
2023/09/29 01:34:40;;;;;;;6.82;4.85;;;;;18.20;98759.00;;;;5052647;28;20128;-65
2023/09/29 01:37:08;;;;;;;6.13;4.57;;;;;18.10;98749.00;;;;5053272;28;20047;-66
2023/09/29 01:39:34;;;;;;;4.80;4.40;;;;;18.20;98753.00;;;;5053232;28;20049;-66
2023/09/29 01:42:01;;;;;;;5.07;4.57;;;;;18.20;98745.00;;;;5053243;28;20512;-66
2023/09/29 01:44:28;;;;;;;7.53;4.95;;;;;18.30;98749.00;;;;5052701;28;20546;-63
2023/09/29 01:46:56;;;;;;;7.57;3.97;;;;;18.40;98743.00;;;;5053000;28;20099;-66
2023/09/29 01:49:22;;;;;;;8.18;4.75;;;;;18.30;98750.00;;;;5053133;28;20051;-66
2023/09/29 01:51:50;;;;;;;4.95;4.32;;;;;18.30;98747.00;;;;5053017;28;20514;-66
2023/09/29 01:54:17;;;;;;;8.15;4.60;;;;;18.30;98735.00;;;;5052312;28;20053;-65
2023/09/29 01:56:44;;;;;;;5.70;4.20;;;;;18.10;98733.00;;;;5051621;28;20103;-66
2023/09/29 01:59:12;;;;;;;4.80;3.92;;;;;18.00;98736.00;;;;5051509;28;20045;-66
2023/09/29 02:01:39;;;;;;;6.60;4.50;;;;;17.90;98736.00;;;;5051517;28;20198;-66
2023/09/29 02:04:07;;;;;;;5.78;4.15;;;;;17.80;98721.00;;;;5050879;28;20506;-66
2023/09/29 02:06:34;;;;;;;8.10;4.85;;;;;17.80;98733.00;;;;5052655;28;20413;-66
2023/09/29 02:09:00;;;;;;;8.00;4.10;;;;;17.80;98738.00;;;;5052756;28;20055;-66
2023/09/29 02:11:27;;;;;;;7.18;4.35;;;;;18.00;98739.00;;;;5034758;28;20525;-66
2023/09/29 02:13:54;;;;;;;5.57;4.15;;;;;18.10;98740.00;;;;5050722;28;20139;-66
2023/09/29 02:16:21;;;;;;;6.47;4.65;;;;;18.10;98737.00;;;;5051106;28;20064;-62
2023/09/29 02:18:48;;;;;;;4.85;4.35;;;;;18.10;98733.00;;;;5051245;28;20044;-63
2023/09/29 02:21:21;;;;;;;5.57;4.07;;;;;18.10;98737.00;;;;5051247;28;20563;-63
2023/09/29 02:23:48;;;;;;;6.22;4.30;;;;;18.10;98738.00;;;;5051798;28;20176;-66
2023/09/29 02:26:15;;;;;;;8.32;4.18;;;;;18.20;98747.00;;;;5051064;28;20048;-66
2023/09/29 02:28:41;;;;;;;7.07;3.65;;;;;18.30;98755.00;;;;5051108;28;20140;-65
2023/09/29 02:31:13;;;;;;;6.47;3.88;;;;;18.30;98747.00;;;;5052319;28;20128;-66
2023/09/29 02:33:41;;;;;;;5.65;4.65;;;;;18.30;98756.00;;;;5051239;28;20524;-65
2023/09/29 02:36:08;;;;;;;4.25;3.85;;;;;18.20;98749.00;;;;5050708;28;20048;-65
2023/09/29 02:38:36;;;;;;;6.05;4.55;;;;;18.20;98745.00;;;;5052188;28;20037;-66
2023/09/29 02:41:03;;;;;;;10.95;4.65;;;;;18.20;98746.00;;;;5052429;28;20047;-66
2023/09/29 02:43:30;;;;;;;6.32;4.60;;;;;18.10;98747.00;;;;5050221;28;20057;-65
2023/09/29 02:45:57;;;;;;;6.72;4.82;;;;;18.10;98749.00;;;;5034242;28;20091;-66
2023/09/29 02:48:24;;;;;;;6.35;4.30;;;;;18.20;98744.00;;;;5050850;28;20563;-66
2023/09/29 02:50:51;;;;;;;7.20;5.43;;;;;18.20;98745.00;;;;5052049;28;20037;-66
2023/09/29 02:53:17;;;;;;;7.47;4.53;;;;;18.10;98744.00;;;;5050744;28;20052;-65
2023/09/29 02:55:45;;;;;;;6.13;4.75;;;;;18.10;98757.00;;;;5051371;28;20079;-66
2023/09/29 02:58:12;;;;;;;7.72;4.28;;;;;18.00;98744.00;;;;5052023;28;20416;-65
2023/09/29 03:00:39;;;;;;;6.03;4.25;;;;;18.00;98735.00;;;;5052141;28;20044;-66
2023/09/29 03:03:06;;;;;;;5.63;4.53;;;;;18.00;98743.00;;;;5052683;28;20620;-66
2023/09/29 03:05:33;;;;;;;6.18;3.92;;;;;18.10;98740.00;;;;5050208;28;20049;-66
2023/09/29 03:07:59;;;;;;;6.57;4.22;;;;;18.10;98734.00;;;;5052057;28;20052;-66
2023/09/29 03:10:28;;;;;;;6.65;4.50;;;;;17.90;98734.00;;;;5050993;28;20151;-66
2023/09/29 03:12:58;;;;;;;5.43;4.25;;;;;17.90;98733.00;;;;5052018;28;20064;-66
2023/09/29 03:15:25;;;;;;;6.82;4.38;;;;;17.90;98734.00;;;;5051451;28;20497;-66
2023/09/29 03:17:55;;;;;;;7.35;4.45;;;;;17.90;98731.00;;;;5034387;28;20052;-66
2023/09/29 03:20:25;;;;;;;5.32;4.10;;;;;17.90;98735.00;;;;5052050;28;20502;-66
2023/09/29 03:22:52;;;;;;;5.65;4.40;;;;;17.90;98729.00;;;;5052059;28;20037;-66
2023/09/29 03:25:20;;;;;;;5.25;4.72;;;;;17.80;98736.00;;;;5033643;28;20115;-66
2023/09/29 03:27:48;;;;;;;6.65;4.53;;;;;17.80;98734.00;;;;5051191;28;20096;-66
2023/09/29 03:30:15;;;;;;;5.45;4.55;;;;;17.70;98735.00;;;;5050484;28;20046;-66
2023/09/29 03:32:43;;;;;;;5.97;4.53;;;;;17.70;98736.00;;;;5051577;28;20076;-66
2023/09/29 03:35:10;;;;;;;4.85;4.35;;;;;17.90;98738.00;;;;5050883;28;20044;-66
2023/09/29 03:37:38;;;;;;;10.32;4.65;;;;;18.00;98741.00;;;;5051549;28;20052;-66
2023/09/29 03:40:16;;;;;;;5.07;4.07;;;;;18.20;98743.00;;;;5051623;28;20041;-66
2023/09/29 03:42:42;;;;;;;4.68;3.75;;;;;18.30;98739.00;;;;5050415;28;20490;-66
2023/09/29 03:45:11;;;;;;;5.10;4.35;;;;;18.20;98743.00;;;;5050834;28;20033;-65
2023/09/29 03:47:38;;;;;;;5.75;4.43;;;;;18.20;98743.00;;;;5054537;28;20045;-66
2023/09/29 03:50:11;;;;;;;8.93;4.70;;;;;18.20;98739.00;;;;5055324;28;20048;-65
2023/09/29 03:52:39;;;;;;;6.55;4.35;;;;;18.30;98744.00;;;;5055335;28;20576;-65
2023/09/29 03:55:09;;;;;;;5.90;4.20;;;;;18.30;98752.00;;;;5054537;28;20041;-66
2023/09/29 03:57:37;;;;;;;5.88;4.22;;;;;18.30;98757.00;;;;5055154;28;20048;-66
2023/09/29 04:00:12;;;;;;;7.60;4.30;;;;;18.30;98757.00;;;;5055006;28;20045;-66
2023/09/29 04:02:40;;;;;;;8.07;4.80;;;;;18.30;98753.00;;;;5055165;28;20098;-65
2023/09/29 04:05:07;;;;;;;24.88;21.50;;;;;18.30;98760.00;;;;5054559;28;20076;-66
2023/09/29 04:07:36;;;;;;;8.20;4.72;;;;;18.10;98758.00;;;;5054987;28;20073;-66
2023/09/29 04:10:04;;;;;;;6.03;5.13;;;;;18.10;98750.00;;;;5055055;28;20047;-65
2023/09/29 04:12:30;;;;;;;8.65;4.43;;;;;18.00;98751.00;;;;5055030;28;20095;-65
2023/09/29 04:14:57;;;;;;;7.75;5.13;;;;;18.00;98750.00;;;;5054206;28;20045;-65
2023/09/29 04:17:23;;;;;;;11.82;5.00;;;;;18.00;98754.00;;;;5054972;28;20493;-65
2023/09/29 04:19:50;;;;;;;7.05;5.43;;;;;18.00;98755.00;;;;5054760;28;20048;-66
2023/09/29 04:22:16;;;;;;;8.68;5.20;;;;;17.90;98754.00;;;;5054775;28;20063;-65
2023/09/29 04:24:43;;;;;;;5.32;4.40;;;;;17.80;98760.00;;;;5054168;28;20048;-65
2023/09/29 04:27:09;;;;;;;6.00;4.82;;;;;17.80;98758.00;;;;5054727;28;20045;-66
2023/09/29 04:29:36;;;;;;;6.15;5.00;;;;;17.80;98749.00;;;;5054666;28;20143;-64
2023/09/29 04:32:04;;;;;;;6.05;5.15;;;;;17.70;98753.00;;;;5054689;28;20125;-64
2023/09/29 04:34:30;;;;;;;6.25;4.65;;;;;17.70;98757.00;;;;5054005;28;20045;-64
2023/09/29 04:36:57;;;;;;;6.43;5.00;;;;;17.70;98760.00;;;;5054400;28;20037;-65
2023/09/29 04:39:23;;;;;;;6.72;4.68;;;;;17.80;98748.00;;;;5053315;28;20049;-65
2023/09/29 04:41:51;;;;;;;5.15;4.60;;;;;17.90;98745.00;;;;5054949;28;20072;-65
2023/09/29 04:44:18;;;;;;;20.27;15.65;;;;;17.80;98739.00;;;;5053992;28;20498;-66
2023/09/29 04:46:44;;;;;;;23.08;12.02;;;;;17.80;98738.00;;;;5054269;28;20033;-66
2023/09/29 04:49:11;;;;;;;10.15;6.65;;;;;17.70;98736.00;;;;5054385;28;20556;-66
2023/09/29 04:51:38;;;;;;;7.32;5.57;;;;;17.70;98729.00;;;;5054333;28;20059;-67
2023/09/29 04:54:05;;;;;;;8.23;5.70;;;;;17.70;98736.00;;;;5053537;28;20051;-67
2023/09/29 04:56:31;;;;;;;6.03;4.70;;;;;17.70;98734.00;;;;5036114;28;20457;-65
2023/09/29 04:58:58;;;;;;;9.32;5.10;;;;;17.60;98727.00;;;;5054031;28;20049;-65
2023/09/29 05:01:26;;;;;;;6.32;5.13;;;;;17.60;98721.00;;;;5054155;28;20058;-65
2023/09/29 05:03:53;;;;;;;7.10;4.85;;;;;17.50;98719.00;;;;5053471;28;20041;-65
2023/09/29 05:06:22;;;;;;;6.72;5.05;;;;;17.50;98725.00;;;;5054451;28;20104;-66
2023/09/29 05:08:49;;;;;;;8.15;4.85;;;;;17.60;98723.00;;;;5054994;28;20106;-65
2023/09/29 05:11:33;;;;;;;7.20;5.13;;;;;17.60;98721.00;;;;5054591;28;20049;-64
2023/09/29 05:14:00;;;;;;;6.03;4.72;;;;;17.50;98718.00;;;;5053773;28;20160;-65
2023/09/29 05:16:27;;;;;;;5.63;4.85;;;;;17.50;98722.00;;;;5054696;28;20047;-66
2023/09/29 05:18:54;;;;;;;6.80;4.93;;;;;17.60;98720.00;;;;5053893;28;20115;-65
2023/09/29 05:21:23;;;;;;;5.70;4.45;;;;;17.70;98719.00;;;;5054667;28;20053;-65
2023/09/29 05:23:50;;;;;;;7.97;4.85;;;;;17.70;98721.00;;;;5053445;28;20044;-65
2023/09/29 05:26:17;;;;;;;8.00;5.15;;;;;17.80;98718.00;;;;5053894;28;20041;-66
2023/09/29 05:28:44;;;;;;;5.45;4.95;;;;;17.80;98725.00;;;;5053924;28;20127;-66
2023/09/29 05:31:10;;;;;;;7.22;5.25;;;;;17.80;98720.00;;;;5053893;28;20041;-66
2023/09/29 05:33:37;;;;;;;6.18;5.38;;;;;17.90;98717.00;;;;5053074;28;20051;-66
2023/09/29 05:36:04;;;;;;;6.20;4.85;;;;;17.90;98728.00;;;;5053711;28;20044;-65
2023/09/29 05:38:31;;;;;;;6.50;4.82;;;;;17.90;98725.00;;;;5053690;28;20059;-66
2023/09/29 05:40:57;;;;;;;8.88;4.97;;;;;17.90;98726.00;;;;5053693;28;20120;-66
2023/09/29 05:43:25;;;;;;;7.82;5.70;;;;;18.00;98742.00;;;;5053228;28;20037;-67
2023/09/29 05:45:53;;;;;;;8.13;6.30;;;;;18.10;98743.00;;;;5055366;28;20064;-66
2023/09/29 05:48:19;;;;;;;7.28;5.32;;;;;18.10;98746.00;;;;5055923;28;20148;-66
2023/09/29 05:50:46;;;;;;;11.73;6.30;;;;;18.20;98738.00;;;;5059261;28;20133;-67
2023/09/29 05:53:16;;;;;;;6.97;5.35;;;;;18.30;98747.00;;;;5062536;28;20068;-66
2023/09/29 05:55:42;;;;;;;10.02;5.85;;;;;18.30;98748.00;;;;5059827;28;20095;-66
2023/09/29 05:58:09;;;;;;;6.65;5.13;;;;;18.30;98745.00;;;;5067245;28;20149;-66
2023/09/29 06:00:36;;;;;;;7.13;4.95;;;;;18.30;98742.00;;;;5069225;28;20106;-65
2023/09/29 06:03:03;;;;;;;7.70;6.00;;;;;18.30;98734.00;;;;5072790;28;20045;-64
2023/09/29 06:05:30;;;;;;;9.02;4.57;;;;;18.30;98730.00;;;;5076663;28;20100;-69
2023/09/29 06:07:57;;;;;;;6.80;4.88;;;;;18.30;98732.00;;;;5076259;28;20048;-66
2023/09/29 06:10:25;;;;;;;7.32;5.60;;;;;18.40;98732.00;;;;5076483;28;20045;-67
2023/09/29 06:12:52;;;;;;;9.25;5.53;;;;;18.40;98727.00;;;;5076904;28;20079;-66
2023/09/29 06:15:19;;;;;;;7.72;4.78;;;;;18.50;98738.00;;;;5061467;28;20052;-66
2023/09/29 06:17:45;;;;;;;10.10;5.72;;;;;18.40;98752.00;;;;5055404;28;20044;-66
2023/09/29 06:20:12;;;;;;;7.80;5.47;;;;;18.50;98746.00;;;;5061894;28;20076;-66
2023/09/29 06:22:39;;;;;;;8.80;5.30;;;;;18.50;98746.00;;;;5070159;28;20079;-66
2023/09/29 06:25:06;;;;;;;8.88;6.10;;;;;18.60;98753.00;;;;5074093;28;20024;-66
2023/09/29 06:27:32;;;;;;;10.10;5.20;;;;;18.60;98746.00;;;;5074280;28;20065;-65
2023/09/29 06:29:59;;;;;;;8.35;6.13;;;;;18.50;98743.00;;;;5068344;28;20041;-66
2023/09/29 06:32:26;;;;;;;6.65;5.63;;;;;18.50;98752.00;;;;5069465;28;20025;-66
2023/09/29 06:34:53;;;;;;;9.20;5.30;;;;;18.60;98757.00;;;;5068639;28;20077;-66
2023/09/29 06:37:19;;;;;;;10.70;6.00;;;;;18.70;98755.00;;;;5072320;28;20045;-66
2023/09/29 06:39:46;;;;;;;7.80;5.55;;;;;18.70;98752.00;;;;5063618;28;20048;-66
2023/09/29 06:42:13;;;;;;;11.18;6.88;;;;;18.60;98759.00;;;;5070097;28;20128;-65
2023/09/29 06:44:39;;;;;;;10.25;5.90;;;;;18.80;98756.00;;;;5070744;28;20025;-66
2023/09/29 06:47:06;;;;;;;8.50;5.82;;;;;18.80;98758.00;;;;5071283;28;20068;-66
2023/09/29 06:49:33;;;;;;;13.00;5.50;;;;;18.80;98751.00;;;;5059087;28;20051;-68
2023/09/29 06:51:59;;;;;;;7.53;5.35;;;;;18.80;98745.00;;;;5059329;28;20049;-66
2023/09/29 06:54:26;;;;;;;9.02;5.53;;;;;18.90;98741.00;;;;5055563;28;20041;-66
2023/09/29 06:56:53;;;;;;;11.82;5.60;;;;;18.90;98735.00;;;;5055409;28;20077;-66
2023/09/29 06:59:20;;;;;;;9.02;5.65;;;;;19.00;98737.00;;;;5053377;28;20044;-66
2023/09/29 07:01:46;;;;;;;15.93;5.68;;;;;19.10;98731.00;;;;5052617;28;20051;-64
2023/09/29 07:04:13;;;;;;;8.05;5.13;;;;;19.20;98731.00;;;;5051935;28;20378;-66
2023/09/29 07:06:40;;;;;;;10.88;6.13;;;;;19.30;98722.00;;;;5052594;28;20044;-65
2023/09/29 07:09:07;;;;;;;8.02;5.40;;;;;19.40;98719.00;;;;5052426;28;20529;-64
2023/09/29 07:11:34;;;;;;;11.93;5.40;;;;;19.50;98725.00;;;;5035048;28;20048;-65
2023/09/29 07:14:02;;;;;;;12.15;5.97;;;;;19.60;98717.00;;;;5052675;28;20129;-66
2023/09/29 07:16:29;;;;;;;12.32;6.32;;;;;19.70;98711.00;;;;5053686;28;20041;-65
2023/09/29 07:18:55;;;;;;;15.40;6.35;;;;;19.80;98712.00;;;;5053214;28;20056;-64
2023/09/29 07:21:22;;;;;;;17.05;7.43;;;;;20.00;98715.00;;;;5056366;28;20055;-65
2023/09/29 07:23:49;;;;;;;13.45;6.35;;;;;20.00;98710.00;;;;5057055;28;20080;-66
2023/09/29 07:26:16;;;;;;;11.25;6.03;;;;;20.10;98705.00;;;;5057895;28;20073;-65
2023/09/29 07:28:43;;;;;;;15.45;6.75;;;;;20.40;98718.00;;;;5057276;28;20075;-67
2023/09/29 07:31:10;;;;;;;16.60;7.38;;;;;20.60;98727.00;;;;5056249;28;20073;-67
2023/09/29 07:33:36;;;;;;;11.70;7.40;;;;;20.70;98716.00;;;;5055413;28;20044;-64
2023/09/29 07:36:03;;;;;;;17.20;8.65;;;;;20.70;98721.00;;;;5056009;28;20037;-64
2023/09/29 07:38:30;;;;;;;21.00;8.65;;;;;20.80;98730.00;;;;5054616;28;20431;-69
2023/09/29 07:40:59;;;;;;;11.20;6.68;;;;;20.90;98737.00;;;;5054808;28;20045;-64
2023/09/29 07:43:25;;;;;;;8.38;5.43;;;;;20.90;98736.00;;;;5055293;28;20420;-64
2023/09/29 07:45:52;;;;;;;14.50;7.65;;;;;20.90;98735.00;;;;5056002;28;20074;-64
2023/09/29 07:48:18;;;;;;;13.05;8.48;;;;;21.00;98738.00;;;;5056223;28;20060;-65
2023/09/29 07:50:45;;;;;;;19.75;10.55;;;;;21.10;98740.00;;;;5055934;28;20490;-64
2023/09/29 07:53:12;;;;;;;19.20;10.40;;;;;21.20;98754.00;;;;5055789;28;20120;-65
2023/09/29 07:55:38;;;;;;;10.63;7.13;;;;;21.20;98757.00;;;;5056182;28;20687;-64
2023/09/29 07:58:06;;;;;;;6.93;5.28;;;;;21.30;98758.00;;;;5054915;28;20045;-64
2023/09/29 08:00:32;;;;;;;7.13;4.85;;;;;21.30;98762.00;;;;5055725;28;20045;-64
2023/09/29 08:03:00;;;;;;;8.18;4.93;;;;;21.30;98771.00;;;;5054339;28;20459;-65
2023/09/29 08:05:27;;;;;;;5.45;4.55;;;;;21.30;98771.00;;;;5054735;28;20041;-64
2023/09/29 08:07:53;;;;;;;15.95;9.23;;;;;21.40;98769.00;;;;5055862;28;20471;-65
2023/09/29 08:10:20;;;;;;;12.80;6.63;;;;;21.50;98769.00;;;;5053848;28;20048;-65
2023/09/29 08:12:47;;;;;;;7.35;4.85;;;;;21.70;98770.00;;;;5055252;28;20049;-64
2023/09/29 08:15:14;;;;;;;6.15;4.45;;;;;21.90;98771.00;;;;5054804;28;20063;-64
2023/09/29 08:17:41;;;;;;;6.20;4.10;;;;;22.00;98784.00;;;;5055166;28;20048;-63
2023/09/29 08:20:09;;;;;;;4.45;3.67;;;;;22.00;98786.00;;;;5054284;28;20043;-63
2023/09/29 08:22:36;;;;;;;4.90;4.05;;;;;22.00;98782.00;;;;5055149;28;20095;-63
2023/09/29 08:25:10;;;;;;;5.78;3.80;;;;;22.10;98781.00;;;;5054622;28;20120;-63
2023/09/29 08:27:38;;;;;;;5.25;3.95;;;;;22.20;98786.00;;;;5055036;28;20041;-63
2023/09/29 08:30:10;;;;;;;5.93;3.83;;;;;22.30;98782.00;;;;5055306;28;20115;-63
2023/09/29 08:32:38;;;;;;;7.95;3.80;;;;;22.50;98778.00;;;;5054014;28;20494;-64
2023/09/29 08:35:05;;;;;;;6.20;4.07;;;;;22.60;98776.00;;;;5052951;28;20045;-63
2023/09/29 08:37:32;;;;;;;7.03;3.70;;;;;22.70;98783.00;;;;5053559;28;20047;-63
2023/09/29 08:39:59;;;;;;;5.13;3.70;;;;;22.90;98779.00;;;;5054602;28;20052;-63
2023/09/29 08:42:37;;;;;;;7.53;4.00;;;;;23.00;98781.00;;;;5054768;28;20053;-64
2023/09/29 08:45:09;;;;;;;5.15;3.38;;;;;23.10;98779.00;;;;5053817;28;20425;-63
2023/09/29 08:47:37;;;;;;;4.82;3.58;;;;;23.20;98782.00;;;;5054525;28;20049;-63
2023/09/29 08:50:05;;;;;;;5.60;3.58;;;;;23.30;98777.00;;;;5054386;28;20051;-63
2023/09/29 08:52:32;;;;;;;4.80;3.55;;;;;23.40;98779.00;;;;5054401;28;20119;-63
2023/09/29 08:54:59;;;;;;;6.88;3.95;;;;;23.50;98775.00;;;;5052687;28;20045;-63
2023/09/29 08:57:27;;;;;;;6.50;3.70;;;;;23.60;98779.00;;;;5053953;28;20051;-63
2023/09/29 08:59:54;;;;;;;6.15;3.90;;;;;23.70;98782.00;;;;5053982;28;20573;-64
2023/09/29 09:02:26;;;;;;;7.45;4.47;;;;;23.70;98786.00;;;;5054221;28;20119;-64
2023/09/29 09:04:53;;;;;;;6.93;3.63;;;;;23.80;98787.00;;;;5053830;28;20638;-63
2023/09/29 09:07:20;;;;;;;6.43;4.43;;;;;23.80;98793.00;;;;5054104;28;20064;-63
2023/09/29 09:09:53;;;;;;;9.20;4.90;;;;;23.90;98802.00;;;;5054470;28;20543;-64
2023/09/29 09:12:33;;;;;;;9.77;4.15;;;;;24.00;98797.00;;;;5054109;28;20049;-64
2023/09/29 09:15:00;;;;;;;5.75;3.40;;;;;24.10;98800.00;;;;5053595;28;20494;-63
2023/09/29 09:17:27;;;;;;;6.55;4.32;;;;;24.10;98788.00;;;;5054004;28;20516;-63
2023/09/29 09:19:54;;;;;;;13.45;7.13;;;;;24.30;98795.00;;;;5053154;28;20045;-63
2023/09/29 09:22:26;;;;;;;8.63;4.80;;;;;24.30;98805.00;;;;5054110;28;20464;-64
2023/09/29 09:25:12;;;;;;;8.60;4.97;;;;;24.40;98811.00;;;;5053099;28;20044;-63
2023/09/29 09:27:41;;;;;;;8.30;4.80;;;;;24.50;98803.00;;;;5053587;28;20040;-64
2023/09/29 09:30:22;;;;;;;11.88;3.58;;;;;24.50;98801.00;;;;5053530;28;20447;-63
2023/09/29 09:32:49;;;;;;;4.00;2.78;;;;;24.70;98815.00;;;;5053717;28;20052;-63
2023/09/29 09:35:27;;;;;;;3.75;3.03;;;;;24.90;98814.00;;;;5052838;28;20044;-64
2023/09/29 09:37:55;;;;;;;6.38;3.28;;;;;25.20;98821.00;;;;5053409;28;20116;-64
2023/09/29 09:40:26;;;;;;;5.15;3.70;;;;;25.50;98814.00;;;;5053558;28;20052;-64
2023/09/29 09:42:53;;;;;;;6.63;3.50;;;;;25.90;98826.00;;;;5053237;28;20047;-64
2023/09/29 09:45:30;;;;;;;4.60;3.75;;;;;25.90;98825.00;;;;5051924;28;20076;-63
2023/09/29 09:47:59;;;;;;;5.57;4.10;;;;;25.80;98835.00;;;;5053419;28;20048;-64
2023/09/29 09:50:28;;;;;;;8.13;4.22;;;;;25.70;98830.00;;;;5053304;28;20491;-63
2023/09/29 09:52:56;;;;;;;4.82;3.03;;;;;25.80;98828.00;;;;5053439;28;20128;-63
2023/09/29 09:55:36;;;;;;;5.70;3.00;;;;;25.70;98825.00;;;;5052854;28;20041;-64
2023/09/29 09:58:13;;;;;;;4.68;3.28;;;;;25.60;98828.00;;;;5052984;28;20048;-63
2023/09/29 10:00:50;;;;;;;8.30;4.20;;;;;25.70;98826.00;;;;5035105;28;20045;-63
2023/09/29 10:03:17;;;;;;;4.03;2.90;;;;;25.60;98829.00;;;;5051607;28;20068;-63
2023/09/29 10:05:51;;;;;;;6.53;3.88;;;;;25.40;98837.00;;;;5052276;28;20102;-63
2023/09/29 10:08:32;;;;;;;10.93;4.70;;;;;25.50;98829.00;;;;5052946;28;20056;-63
2023/09/29 10:11:10;;;;;;;6.90;3.38;;;;;25.70;98830.00;;;;5052762;28;20049;-63
2023/09/29 10:13:42;;;;;;;7.53;3.83;;;;;25.80;98828.00;;;;5052326;28;20098;-63
2023/09/29 10:16:23;;;;;;;6.20;3.22;;;;;25.80;98830.00;;;;5051663;28;20413;-63
2023/09/29 10:19:05;;;;;;;4.22;3.15;;;;;25.70;98832.00;;;;5052484;28;20098;-63
2023/09/29 10:21:43;;;;;;;7.57;3.00;;;;;25.80;98819.00;;;;5052461;28;20072;-63
2023/09/29 10:24:13;;;;;;;4.38;3.40;;;;;25.80;98832.00;;;;5051915;28;20045;-63
2023/09/29 10:26:49;;;;;;;7.90;3.15;;;;;25.90;98829.00;;;;5052430;28;20498;-63
2023/09/29 10:29:19;;;;;;;5.85;3.22;;;;;26.00;98829.00;;;;5052402;28;20072;-63
2023/09/29 10:31:48;;;;;;;6.22;3.78;;;;;26.10;98829.00;;;;5052274;28;20036;-63
2023/09/29 10:34:20;;;;;;;6.13;2.70;;;;;26.40;98825.00;;;;5051596;28;20203;-64
2023/09/29 10:36:55;;;;;;;5.25;2.88;;;;;26.50;98823.00;;;;5052127;28;20032;-63
2023/09/29 10:39:29;;;;;;;6.07;2.88;;;;;26.60;98826.00;;;;5052223;28;20521;-63
2023/09/29 10:42:04;;;;;;;4.82;2.78;;;;;26.70;98827.00;;;;5052253;28;20068;-63
2023/09/29 10:44:31;;;;;;;4.78;3.08;;;;;26.80;98825.00;;;;5051682;28;20040;-63
2023/09/29 10:46:57;;;;;;;7.25;3.20;;;;;26.80;98823.00;;;;5052254;28;20044;-63
2023/09/29 10:49:34;;;;;;;3.17;2.88;;;;;27.00;98826.00;;;;5051020;28;20045;-63
2023/09/29 10:52:01;;;;;;;6.68;3.35;;;;;27.20;98829.00;;;;5052088;28;20110;-63
2023/09/29 10:54:27;;;;;;;4.68;2.83;;;;;27.20;98831.00;;;;5051113;28;20048;-63
2023/09/29 10:56:54;;;;;;;5.57;2.95;;;;;27.30;98823.00;;;;5051745;28;20098;-63
2023/09/29 10:59:22;;;;;;;6.10;3.55;;;;;27.30;98826.00;;;;5051905;28;20439;-63
2023/09/29 11:01:49;;;;;;;13.68;3.08;;;;;27.50;98826.00;;;;5051771;28;20045;-64
2023/09/29 11:04:15;;;;;;;5.50;3.30;;;;;27.40;98838.00;;;;5051354;28;20494;-64
2023/09/29 11:06:46;;;;;;;10.70;3.67;;;;;27.20;98846.00;;;;5051839;28;20453;-63
2023/09/29 11:09:19;;;;;;;5.22;2.92;;;;;27.10;98848.00;;;;5051683;28;20044;-64
2023/09/29 11:11:46;;;;;;;5.20;3.00;;;;;27.00;98848.00;;;;5050548;28;20049;-64
2023/09/29 11:14:13;;;;;;;9.80;4.10;;;;;26.80;98861.00;;;;5049901;28;20041;-64
2023/09/29 11:16:40;;;;;;;10.32;4.88;;;;;26.50;98866.00;;;;5051325;28;20041;-65
2023/09/29 11:19:11;;;;;;;4.95;2.97;;;;;26.10;98860.00;;;;5051822;28;20045;-65
2023/09/29 11:21:40;;;;;;;20.33;7.60;;;;;25.90;98865.00;;;;5034427;28;20422;-65
2023/09/29 11:24:11;;;;;;;5.80;2.90;;;;;25.70;98873.00;;;;5051068;28;20095;-65
2023/09/29 11:26:45;;;;;;;6.78;3.78;;;;;25.40;98865.00;;;;5051716;28;20041;-65
2023/09/29 11:29:23;;;;;;;6.82;3.00;;;;;25.30;98869.00;;;;5050564;28;20452;-65
2023/09/29 11:31:51;;;;;;;6.72;3.40;;;;;25.10;98875.00;;;;5050451;28;20102;-65
2023/09/29 11:34:18;;;;;;;4.55;2.95;;;;;25.00;98870.00;;;;5051023;28;20049;-65
2023/09/29 11:36:46;;;;;;;7.95;2.92;;;;;24.80;98880.00;;;;5051397;28;20041;-65
2023/09/29 11:39:20;;;;;;;3.90;2.88;;;;;24.60;98874.00;;;;5051458;28;20156;-65
2023/09/29 11:41:47;;;;;;;9.88;4.03;;;;;24.50;98884.00;;;;5051576;28;20099;-64
2023/09/29 11:44:17;;;;;;;8.77;4.00;;;;;24.30;98875.00;;;;5050774;28;20490;-64
2023/09/29 11:46:44;;;;;;;8.40;4.10;;;;;24.20;98888.00;;;;5050334;28;20049;-64
2023/09/29 11:49:11;;;;;;;6.68;3.72;;;;;24.10;98888.00;;;;5051413;28;20083;-65
2023/09/29 11:51:39;;;;;;;11.43;4.70;;;;;24.10;98888.00;;;;5051406;28;20216;-65
2023/09/29 11:54:05;;;;;;;10.90;3.90;;;;;24.00;98887.00;;;;5050790;28;20121;-64
2023/09/29 11:56:33;;;;;;;9.75;4.50;;;;;23.90;98900.00;;;;5051355;28;20069;-63
2023/09/29 11:58:59;;;;;;;6.15;3.33;;;;;23.80;98888.00;;;;5051254;28;20029;-63
2023/09/29 12:01:29;;;;;;;7.35;4.20;;;;;23.90;98896.00;;;;5051227;28;20064;-65
2023/09/29 12:03:57;;;;;;;8.38;3.70;;;;;23.90;98899.00;;;;5050686;28;20489;-64
2023/09/29 12:06:25;;;;;;;7.35;3.70;;;;;23.90;98892.00;;;;5051163;28;20041;-64
2023/09/29 12:08:51;;;;;;;5.53;3.22;;;;;24.00;98897.00;;;;5054572;28;20041;-64
2023/09/29 12:11:20;;;;;;;8.00;4.38;;;;;24.10;98903.00;;;;5054926;28;20548;-63
2023/09/29 12:13:47;;;;;;;7.40;3.78;;;;;24.10;98906.00;;;;5054301;28;20501;-63
2023/09/29 12:16:15;;;;;;;9.55;4.13;;;;;24.10;98909.00;;;;5053784;28;20053;-63
2023/09/29 12:18:42;;;;;;;13.73;5.13;;;;;24.00;98912.00;;;;5054661;28;20048;-63
2023/09/29 12:21:10;;;;;;;10.13;4.50;;;;;24.00;98910.00;;;;5054632;28;20047;-63